sensor_id;sensor_type;location;lat;lon;timestamp;temperature;humidity
7159;DHT22;63175;52.374;13.132;2024-01-06T00:00:09;2.20;99.90
7159;DHT22;63175;52.374;13.132;2024-01-06T00:02:36;2.20;99.90
7159;DHT22;63175;52.374;13.132;2024-01-06T00:05:03;2.20;99.90
7159;DHT22;63175;52.374;13.132;2024-01-06T00:07:30;2.20;99.90
7159;DHT22;63175;52.374;13.132;2024-01-06T00:09:57;2.20;99.90
7159;DHT22;63175;52.374;13.132;2024-01-06T00:12:25;2.20;99.90
7159;DHT22;63175;52.374;13.132;2024-01-06T00:14:52;2.20;99.90
7159;DHT22;63175;52.374;13.132;2024-01-06T00:17:19;2.20;99.90
7159;DHT22;63175;52.374;13.132;2024-01-06T00:19:46;2.20;99.90
7159;DHT22;63175;52.374;13.132;2024-01-06T00:22:16;2.20;99.90
7159;DHT22;63175;52.374;13.132;2024-01-06T00:24:43;2.20;99.90
7159;DHT22;63175;52.374;13.132;2024-01-06T00:27:10;2.20;99.90
7159;DHT22;63175;52.374;13.132;2024-01-06T00:29:38;2.20;99.90
7159;DHT22;63175;52.374;13.132;2024-01-06T00:32:05;2.20;99.90
7159;DHT22;63175;52.374;13.132;2024-01-06T00:34:32;2.20;99.90
7159;DHT22;63175;52.374;13.132;2024-01-06T00:36:59;2.20;99.90
7159;DHT22;63175;52.374;13.132;2024-01-06T00:39:26;2.20;99.90
7159;DHT22;63175;52.374;13.132;2024-01-06T00:41:53;2.20;99.90
7159;DHT22;63175;52.374;13.132;2024-01-06T00:44:20;2.20;99.90
7159;DHT22;63175;52.374;13.132;2024-01-06T00:46:48;2.20;99.90
7159;DHT22;63175;52.374;13.132;2024-01-06T00:49:15;2.20;99.90
7159;DHT22;63175;52.374;13.132;2024-01-06T00:51:41;2.20;99.90
7159;DHT22;63175;52.374;13.132;2024-01-06T00:54:08;2.20;99.90
7159;DHT22;63175;52.374;13.132;2024-01-06T00:56:35;2.20;99.90
7159;DHT22;63175;52.374;13.132;2024-01-06T00:59:02;2.20;99.90
7159;DHT22;63175;52.374;13.132;2024-01-06T01:01:29;2.20;99.90
7159;DHT22;63175;52.374;13.132;2024-01-06T01:03:57;2.20;99.90
7159;DHT22;63175;52.374;13.132;2024-01-06T01:06:24;2.20;99.90
7159;DHT22;63175;52.374;13.132;2024-01-06T01:08:50;2.20;99.90
7159;DHT22;63175;52.374;13.132;2024-01-06T01:11:17;2.20;99.90
7159;DHT22;63175;52.374;13.132;2024-01-06T01:13:44;2.20;99.90
7159;DHT22;63175;52.374;13.132;2024-01-06T01:16:11;2.20;99.90
7159;DHT22;63175;52.374;13.132;2024-01-06T01:18:38;2.20;99.90
7159;DHT22;63175;52.374;13.132;2024-01-06T01:21:06;2.20;99.90
7159;DHT22;63175;52.374;13.132;2024-01-06T01:23:33;2.20;99.90
7159;DHT22;63175;52.374;13.132;2024-01-06T01:26:00;2.20;99.90
7159;DHT22;63175;52.374;13.132;2024-01-06T01:28:27;2.20;99.90
7159;DHT22;63175;52.374;13.132;2024-01-06T01:30:53;2.20;99.90
7159;DHT22;63175;52.374;13.132;2024-01-06T01:33:20;2.20;99.90
7159;DHT22;63175;52.374;13.132;2024-01-06T01:35:47;2.20;99.90
7159;DHT22;63175;52.374;13.132;2024-01-06T01:38:15;2.20;99.90
7159;DHT22;63175;52.374;13.132;2024-01-06T01:40:42;2.20;99.90
7159;DHT22;63175;52.374;13.132;2024-01-06T01:43:16;2.20;99.90
7159;DHT22;63175;52.374;13.132;2024-01-06T01:45:43;2.20;99.90
7159;DHT22;63175;52.374;13.132;2024-01-06T01:48:10;2.20;99.90
7159;DHT22;63175;52.374;13.132;2024-01-06T01:50:37;2.20;99.90
7159;DHT22;63175;52.374;13.132;2024-01-06T01:53:04;2.20;99.90
7159;DHT22;63175;52.374;13.132;2024-01-06T01:55:32;2.20;99.90
7159;DHT22;63175;52.374;13.132;2024-01-06T01:57:59;2.20;99.90
7159;DHT22;63175;52.374;13.132;2024-01-06T02:00:27;2.20;99.90
7159;DHT22;63175;52.374;13.132;2024-01-06T02:02:54;2.20;99.90
7159;DHT22;63175;52.374;13.132;2024-01-06T02:05:21;2.10;99.90
7159;DHT22;63175;52.374;13.132;2024-01-06T02:07:47;2.10;99.90
7159;DHT22;63175;52.374;13.132;2024-01-06T02:10:16;2.10;99.90
7159;DHT22;63175;52.374;13.132;2024-01-06T02:12:44;2.10;99.90
7159;DHT22;63175;52.374;13.132;2024-01-06T02:15:11;2.10;99.90
7159;DHT22;63175;52.374;13.132;2024-01-06T02:17:38;2.10;99.90
7159;DHT22;63175;52.374;13.132;2024-01-06T02:20:07;2.10;99.90
7159;DHT22;63175;52.374;13.132;2024-01-06T02:22:36;2.10;99.90
7159;DHT22;63175;52.374;13.132;2024-01-06T02:25:05;2.10;99.90
7159;DHT22;63175;52.374;13.132;2024-01-06T02:27:37;2.00;99.90
7159;DHT22;63175;52.374;13.132;2024-01-06T02:30:05;2.10;99.90
7159;DHT22;63175;52.374;13.132;2024-01-06T02:32:32;2.00;99.90
7159;DHT22;63175;52.374;13.132;2024-01-06T02:34:59;2.00;99.90
7159;DHT22;63175;52.374;13.132;2024-01-06T02:37:26;2.10;99.90
7159;DHT22;63175;52.374;13.132;2024-01-06T02:39:54;2.00;99.90
7159;DHT22;63175;52.374;13.132;2024-01-06T02:42:21;2.10;99.90
7159;DHT22;63175;52.374;13.132;2024-01-06T02:44:49;2.10;99.90
7159;DHT22;63175;52.374;13.132;2024-01-06T02:47:16;2.00;99.90
7159;DHT22;63175;52.374;13.132;2024-01-06T02:49:43;2.00;99.90
7159;DHT22;63175;52.374;13.132;2024-01-06T02:52:10;2.00;99.90
7159;DHT22;63175;52.374;13.132;2024-01-06T02:54:37;2.00;99.90
7159;DHT22;63175;52.374;13.132;2024-01-06T02:57:05;2.00;99.90
7159;DHT22;63175;52.374;13.132;2024-01-06T02:59:32;2.00;99.90
7159;DHT22;63175;52.374;13.132;2024-01-06T03:02:00;2.00;99.90
7159;DHT22;63175;52.374;13.132;2024-01-06T03:04:27;2.00;99.90
7159;DHT22;63175;52.374;13.132;2024-01-06T03:06:54;2.00;99.90
7159;DHT22;63175;52.374;13.132;2024-01-06T03:09:21;2.00;99.90
7159;DHT22;63175;52.374;13.132;2024-01-06T03:11:47;2.00;99.90
7159;DHT22;63175;52.374;13.132;2024-01-06T03:14:16;2.00;99.90
7159;DHT22;63175;52.374;13.132;2024-01-06T03:16:42;2.00;99.90
7159;DHT22;63175;52.374;13.132;2024-01-06T03:19:09;2.00;99.90
7159;DHT22;63175;52.374;13.132;2024-01-06T03:21:36;2.00;99.90
7159;DHT22;63175;52.374;13.132;2024-01-06T03:24:04;1.90;99.90
7159;DHT22;63175;52.374;13.132;2024-01-06T03:26:31;1.90;99.90
7159;DHT22;63175;52.374;13.132;2024-01-06T03:28:59;2.00;99.90
7159;DHT22;63175;52.374;13.132;2024-01-06T03:31:29;2.00;99.90
7159;DHT22;63175;52.374;13.132;2024-01-06T03:33:56;1.90;99.90
7159;DHT22;63175;52.374;13.132;2024-01-06T03:36:22;2.00;99.90
7159;DHT22;63175;52.374;13.132;2024-01-06T03:38:49;1.90;99.90
7159;DHT22;63175;52.374;13.132;2024-01-06T03:41:16;1.90;99.90
7159;DHT22;63175;52.374;13.132;2024-01-06T03:43:43;1.90;99.90
7159;DHT22;63175;52.374;13.132;2024-01-06T03:46:09;1.90;99.90
7159;DHT22;63175;52.374;13.132;2024-01-06T03:48:38;1.90;99.90
7159;DHT22;63175;52.374;13.132;2024-01-06T03:51:06;1.90;99.90
7159;DHT22;63175;52.374;13.132;2024-01-06T03:53:33;1.90;99.90
7159;DHT22;63175;52.374;13.132;2024-01-06T03:56:00;1.90;99.90
7159;DHT22;63175;52.374;13.132;2024-01-06T03:58:27;1.90;99.90
7159;DHT22;63175;52.374;13.132;2024-01-06T04:00:54;1.90;99.90
7159;DHT22;63175;52.374;13.132;2024-01-06T04:03:20;1.90;99.90
7159;DHT22;63175;52.374;13.132;2024-01-06T04:05:49;1.90;99.90
7159;DHT22;63175;52.374;13.132;2024-01-06T04:08:15;1.90;99.90
7159;DHT22;63175;52.374;13.132;2024-01-06T04:10:43;1.90;99.90
7159;DHT22;63175;52.374;13.132;2024-01-06T04:13:10;1.90;99.90
7159;DHT22;63175;52.374;13.132;2024-01-06T04:15:37;1.90;99.90
7159;DHT22;63175;52.374;13.132;2024-01-06T04:18:05;1.90;99.90
7159;DHT22;63175;52.374;13.132;2024-01-06T04:20:32;1.90;99.90
7159;DHT22;63175;52.374;13.132;2024-01-06T04:23:01;1.90;99.90
7159;DHT22;63175;52.374;13.132;2024-01-06T04:25:27;1.90;99.90
7159;DHT22;63175;52.374;13.132;2024-01-06T04:27:54;1.80;99.90
7159;DHT22;63175;52.374;13.132;2024-01-06T04:30:21;1.90;99.90
7159;DHT22;63175;52.374;13.132;2024-01-06T04:32:48;1.80;99.90
7159;DHT22;63175;52.374;13.132;2024-01-06T04:35:15;1.80;99.90
7159;DHT22;63175;52.374;13.132;2024-01-06T04:37:42;1.80;99.90
7159;DHT22;63175;52.374;13.132;2024-01-06T04:40:11;1.80;99.90
7159;DHT22;63175;52.374;13.132;2024-01-06T04:42:38;1.80;99.90
7159;DHT22;63175;52.374;13.132;2024-01-06T04:45:06;1.80;99.90
7159;DHT22;63175;52.374;13.132;2024-01-06T04:47:33;1.80;99.90
7159;DHT22;63175;52.374;13.132;2024-01-06T04:50:00;1.80;99.90
7159;DHT22;63175;52.374;13.132;2024-01-06T04:52:27;1.80;99.90
7159;DHT22;63175;52.374;13.132;2024-01-06T04:54:55;1.80;99.90
7159;DHT22;63175;52.374;13.132;2024-01-06T04:57:23;1.80;99.90
7159;DHT22;63175;52.374;13.132;2024-01-06T04:59:50;1.70;99.90
7159;DHT22;63175;52.374;13.132;2024-01-06T05:02:17;1.80;99.90
7159;DHT22;63175;52.374;13.132;2024-01-06T05:04:43;1.80;99.90
7159;DHT22;63175;52.374;13.132;2024-01-06T05:07:10;1.80;99.90
7159;DHT22;63175;52.374;13.132;2024-01-06T05:09:38;1.80;99.90
7159;DHT22;63175;52.374;13.132;2024-01-06T05:12:06;1.80;99.90
7159;DHT22;63175;52.374;13.132;2024-01-06T05:14:34;1.70;99.90
7159;DHT22;63175;52.374;13.132;2024-01-06T05:17:01;1.70;99.90
7159;DHT22;63175;52.374;13.132;2024-01-06T05:19:27;1.70;99.90
7159;DHT22;63175;52.374;13.132;2024-01-06T05:21:54;1.70;99.90
7159;DHT22;63175;52.374;13.132;2024-01-06T05:24:22;1.70;99.90
7159;DHT22;63175;52.374;13.132;2024-01-06T05:26:49;1.70;99.90
7159;DHT22;63175;52.374;13.132;2024-01-06T05:29:15;1.70;99.90
7159;DHT22;63175;52.374;13.132;2024-01-06T05:31:44;1.80;99.90
7159;DHT22;63175;52.374;13.132;2024-01-06T05:34:12;1.80;99.90
7159;DHT22;63175;52.374;13.132;2024-01-06T05:36:39;1.80;99.90
7159;DHT22;63175;52.374;13.132;2024-01-06T05:39:06;1.80;99.90
7159;DHT22;63175;52.374;13.132;2024-01-06T05:41:37;1.80;99.90
7159;DHT22;63175;52.374;13.132;2024-01-06T05:44:04;1.80;99.90
7159;DHT22;63175;52.374;13.132;2024-01-06T05:46:31;1.80;99.90
7159;DHT22;63175;52.374;13.132;2024-01-06T05:48:59;1.80;99.90
7159;DHT22;63175;52.374;13.132;2024-01-06T05:51:26;1.80;99.90
7159;DHT22;63175;52.374;13.132;2024-01-06T05:53:53;1.90;99.90
7159;DHT22;63175;52.374;13.132;2024-01-06T05:56:24;1.90;99.90
7159;DHT22;63175;52.374;13.132;2024-01-06T05:58:51;1.90;99.90
7159;DHT22;63175;52.374;13.132;2024-01-06T06:01:19;1.90;99.90
7159;DHT22;63175;52.374;13.132;2024-01-06T06:03:46;1.90;99.90
7159;DHT22;63175;52.374;13.132;2024-01-06T06:06:14;1.90;99.90
7159;DHT22;63175;52.374;13.132;2024-01-06T06:08:42;1.90;99.90
7159;DHT22;63175;52.374;13.132;2024-01-06T06:11:09;1.90;99.90
7159;DHT22;63175;52.374;13.132;2024-01-06T06:13:37;1.90;99.90
7159;DHT22;63175;52.374;13.132;2024-01-06T06:16:05;1.90;99.90
7159;DHT22;63175;52.374;13.132;2024-01-06T06:18:31;1.90;99.90
7159;DHT22;63175;52.374;13.132;2024-01-06T06:20:59;1.80;99.90
7159;DHT22;63175;52.374;13.132;2024-01-06T06:23:27;1.90;99.90
7159;DHT22;63175;52.374;13.132;2024-01-06T06:25:54;1.80;99.90
7159;DHT22;63175;52.374;13.132;2024-01-06T06:28:21;1.90;99.90
7159;DHT22;63175;52.374;13.132;2024-01-06T06:30:49;1.90;99.90
7159;DHT22;63175;52.374;13.132;2024-01-06T06:33:16;1.90;99.90
7159;DHT22;63175;52.374;13.132;2024-01-06T06:35:43;1.90;99.90
7159;DHT22;63175;52.374;13.132;2024-01-06T06:38:09;1.90;99.90
7159;DHT22;63175;52.374;13.132;2024-01-06T06:40:38;1.90;99.90
7159;DHT22;63175;52.374;13.132;2024-01-06T06:43:04;1.90;99.90
7159;DHT22;63175;52.374;13.132;2024-01-06T06:45:32;1.90;99.90
7159;DHT22;63175;52.374;13.132;2024-01-06T06:47:59;1.80;99.90
7159;DHT22;63175;52.374;13.132;2024-01-06T06:50:25;1.80;99.90
7159;DHT22;63175;52.374;13.132;2024-01-06T06:52:52;1.90;99.90
7159;DHT22;63175;52.374;13.132;2024-01-06T06:55:19;1.90;99.90
7159;DHT22;63175;52.374;13.132;2024-01-06T06:57:47;1.80;99.90
7159;DHT22;63175;52.374;13.132;2024-01-06T07:00:15;1.80;99.90
7159;DHT22;63175;52.374;13.132;2024-01-06T07:02:42;1.80;99.90
7159;DHT22;63175;52.374;13.132;2024-01-06T07:05:09;1.80;99.90
7159;DHT22;63175;52.374;13.132;2024-01-06T07:07:36;1.80;99.90
7159;DHT22;63175;52.374;13.132;2024-01-06T07:10:04;1.80;99.90
7159;DHT22;63175;52.374;13.132;2024-01-06T07:12:31;1.80;99.90
7159;DHT22;63175;52.374;13.132;2024-01-06T07:14:59;1.80;99.90
7159;DHT22;63175;52.374;13.132;2024-01-06T07:17:26;1.80;99.90
7159;DHT22;63175;52.374;13.132;2024-01-06T07:19:52;1.80;99.90
7159;DHT22;63175;52.374;13.132;2024-01-06T07:22:20;1.80;99.90
7159;DHT22;63175;52.374;13.132;2024-01-06T07:24:47;1.80;99.90
7159;DHT22;63175;52.374;13.132;2024-01-06T07:27:14;1.80;99.90
7159;DHT22;63175;52.374;13.132;2024-01-06T07:29:40;1.80;99.90
7159;DHT22;63175;52.374;13.132;2024-01-06T07:32:09;1.80;99.90
7159;DHT22;63175;52.374;13.132;2024-01-06T07:34:35;1.80;99.90
7159;DHT22;63175;52.374;13.132;2024-01-06T07:37:03;1.80;99.90
7159;DHT22;63175;52.374;13.132;2024-01-06T07:39:29;1.80;99.90
7159;DHT22;63175;52.374;13.132;2024-01-06T07:41:56;1.80;99.90
7159;DHT22;63175;52.374;13.132;2024-01-06T07:44:23;1.80;99.90
7159;DHT22;63175;52.374;13.132;2024-01-06T07:46:51;1.80;99.90
7159;DHT22;63175;52.374;13.132;2024-01-06T07:49:19;1.90;99.90
7159;DHT22;63175;52.374;13.132;2024-01-06T07:51:46;1.90;99.90
7159;DHT22;63175;52.374;13.132;2024-01-06T07:54:13;1.80;99.90
7159;DHT22;63175;52.374;13.132;2024-01-06T07:56:39;1.90;99.90
7159;DHT22;63175;52.374;13.132;2024-01-06T07:59:07;1.80;99.90
7159;DHT22;63175;52.374;13.132;2024-01-06T08:01:33;1.80;99.90
7159;DHT22;63175;52.374;13.132;2024-01-06T08:04:00;1.80;99.90
7159;DHT22;63175;52.374;13.132;2024-01-06T08:06:28;1.80;99.90
7159;DHT22;63175;52.374;13.132;2024-01-06T08:08:55;1.80;99.90
7159;DHT22;63175;52.374;13.132;2024-01-06T08:11:22;1.80;99.90
7159;DHT22;63175;52.374;13.132;2024-01-06T08:13:49;1.80;99.90
7159;DHT22;63175;52.374;13.132;2024-01-06T08:16:16;1.80;99.90
7159;DHT22;63175;52.374;13.132;2024-01-06T08:18:43;1.80;99.90
7159;DHT22;63175;52.374;13.132;2024-01-06T08:21:11;1.80;99.90
7159;DHT22;63175;52.374;13.132;2024-01-06T08:23:39;1.80;99.90
7159;DHT22;63175;52.374;13.132;2024-01-06T08:26:06;1.80;99.90
7159;DHT22;63175;52.374;13.132;2024-01-06T08:28:33;1.80;99.90
7159;DHT22;63175;52.374;13.132;2024-01-06T08:31:00;1.80;99.90
7159;DHT22;63175;52.374;13.132;2024-01-06T08:33:26;1.80;99.90
7159;DHT22;63175;52.374;13.132;2024-01-06T08:35:53;1.80;99.90
7159;DHT22;63175;52.374;13.132;2024-01-06T08:38:20;1.80;99.90
7159;DHT22;63175;52.374;13.132;2024-01-06T08:40:49;1.80;99.90
7159;DHT22;63175;52.374;13.132;2024-01-06T08:43:16;1.80;99.90
7159;DHT22;63175;52.374;13.132;2024-01-06T08:45:43;1.80;99.90
7159;DHT22;63175;52.374;13.132;2024-01-06T08:48:10;1.80;99.90
7159;DHT22;63175;52.374;13.132;2024-01-06T08:50:39;1.80;99.90
7159;DHT22;63175;52.374;13.132;2024-01-06T08:53:05;1.70;99.90
7159;DHT22;63175;52.374;13.132;2024-01-06T08:55:32;1.70;99.90
7159;DHT22;63175;52.374;13.132;2024-01-06T08:58:00;1.70;99.90
7159;DHT22;63175;52.374;13.132;2024-01-06T09:00:27;1.70;99.90
7159;DHT22;63175;52.374;13.132;2024-01-06T09:02:55;1.70;99.90
7159;DHT22;63175;52.374;13.132;2024-01-06T09:05:21;1.70;99.90
7159;DHT22;63175;52.374;13.132;2024-01-06T09:07:48;1.70;99.90
7159;DHT22;63175;52.374;13.132;2024-01-06T09:10:16;1.70;99.90
7159;DHT22;63175;52.374;13.132;2024-01-06T09:12:43;1.70;99.90
7159;DHT22;63175;52.374;13.132;2024-01-06T09:15:11;1.80;99.90
7159;DHT22;63175;52.374;13.132;2024-01-06T09:17:38;1.70;99.90
7159;DHT22;63175;52.374;13.132;2024-01-06T09:20:06;1.70;99.90
7159;DHT22;63175;52.374;13.132;2024-01-06T09:22:33;1.70;99.90
7159;DHT22;63175;52.374;13.132;2024-01-06T09:25:00;1.70;99.90
7159;DHT22;63175;52.374;13.132;2024-01-06T09:27:27;1.70;99.90
7159;DHT22;63175;52.374;13.132;2024-01-06T09:29:54;1.70;99.90
7159;DHT22;63175;52.374;13.132;2024-01-06T09:32:22;1.70;99.90
7159;DHT22;63175;52.374;13.132;2024-01-06T09:34:49;1.70;99.90
7159;DHT22;63175;52.374;13.132;2024-01-06T09:37:16;1.70;99.90
7159;DHT22;63175;52.374;13.132;2024-01-06T09:39:43;1.70;99.90
7159;DHT22;63175;52.374;13.132;2024-01-06T09:42:10;1.70;99.90
7159;DHT22;63175;52.374;13.132;2024-01-06T09:44:37;1.70;99.90
7159;DHT22;63175;52.374;13.132;2024-01-06T09:47:04;1.70;99.90
7159;DHT22;63175;52.374;13.132;2024-01-06T09:49:34;1.70;99.90
7159;DHT22;63175;52.374;13.132;2024-01-06T09:52:14;1.70;99.90
7159;DHT22;63175;52.374;13.132;2024-01-06T09:54:45;1.70;99.90
7159;DHT22;63175;52.374;13.132;2024-01-06T09:57:13;1.70;99.90
7159;DHT22;63175;52.374;13.132;2024-01-06T09:59:40;1.70;99.90
7159;DHT22;63175;52.374;13.132;2024-01-06T10:02:10;1.70;99.90
7159;DHT22;63175;52.374;13.132;2024-01-06T10:04:40;1.60;99.90
7159;DHT22;63175;52.374;13.132;2024-01-06T10:07:07;1.60;99.90
7159;DHT22;63175;52.374;13.132;2024-01-06T10:09:37;1.60;99.90
7159;DHT22;63175;52.374;13.132;2024-01-06T10:12:05;1.60;99.90
7159;DHT22;63175;52.374;13.132;2024-01-06T10:14:32;1.70;99.90
7159;DHT22;63175;52.374;13.132;2024-01-06T10:16:59;1.70;99.90
7159;DHT22;63175;52.374;13.132;2024-01-06T10:19:26;1.70;99.90
7159;DHT22;63175;52.374;13.132;2024-01-06T10:21:54;1.70;99.90
7159;DHT22;63175;52.374;13.132;2024-01-06T10:24:21;1.70;99.90
7159;DHT22;63175;52.374;13.132;2024-01-06T10:26:48;1.60;99.90
7159;DHT22;63175;52.374;13.132;2024-01-06T10:29:15;1.70;99.90
7159;DHT22;63175;52.374;13.132;2024-01-06T10:31:42;1.60;99.90
7159;DHT22;63175;52.374;13.132;2024-01-06T10:34:09;1.70;99.90
7159;DHT22;63175;52.374;13.132;2024-01-06T10:36:36;1.60;99.90
7159;DHT22;63175;52.374;13.132;2024-01-06T10:39:05;1.60;99.90
7159;DHT22;63175;52.374;13.132;2024-01-06T10:41:33;1.60;99.90
7159;DHT22;63175;52.374;13.132;2024-01-06T10:44:01;1.60;99.90
7159;DHT22;63175;52.374;13.132;2024-01-06T10:46:31;1.60;99.90
7159;DHT22;63175;52.374;13.132;2024-01-06T10:48:58;1.60;99.90
7159;DHT22;63175;52.374;13.132;2024-01-06T10:51:27;1.60;99.90
7159;DHT22;63175;52.374;13.132;2024-01-06T10:53:57;1.60;99.90
7159;DHT22;63175;52.374;13.132;2024-01-06T10:56:26;1.60;99.90
7159;DHT22;63175;52.374;13.132;2024-01-06T10:58:53;1.50;99.90
7159;DHT22;63175;52.374;13.132;2024-01-06T11:01:23;1.60;99.90
7159;DHT22;63175;52.374;13.132;2024-01-06T11:03:50;1.50;99.90
7159;DHT22;63175;52.374;13.132;2024-01-06T11:06:19;1.50;99.90
7159;DHT22;63175;52.374;13.132;2024-01-06T11:08:51;1.50;99.90
7159;DHT22;63175;52.374;13.132;2024-01-06T11:11:19;1.50;99.90
7159;DHT22;63175;52.374;13.132;2024-01-06T11:13:48;1.50;99.90
7159;DHT22;63175;52.374;13.132;2024-01-06T11:16:35;1.50;99.90
7159;DHT22;63175;52.374;13.132;2024-01-06T11:19:03;1.50;99.90
7159;DHT22;63175;52.374;13.132;2024-01-06T11:21:33;1.50;99.90
7159;DHT22;63175;52.374;13.132;2024-01-06T11:24:15;1.50;99.90
7159;DHT22;63175;52.374;13.132;2024-01-06T11:26:43;1.50;99.90
7159;DHT22;63175;52.374;13.132;2024-01-06T11:29:12;1.40;99.90
7159;DHT22;63175;52.374;13.132;2024-01-06T11:31:39;1.40;99.90
7159;DHT22;63175;52.374;13.132;2024-01-06T11:34:14;1.40;99.90
7159;DHT22;63175;52.374;13.132;2024-01-06T11:36:43;1.40;99.90
7159;DHT22;63175;52.374;13.132;2024-01-06T11:39:34;1.40;99.90
7159;DHT22;63175;52.374;13.132;2024-01-06T11:42:00;1.40;99.90
7159;DHT22;63175;52.374;13.132;2024-01-06T11:44:29;1.40;99.90
7159;DHT22;63175;52.374;13.132;2024-01-06T11:46:56;1.30;99.90
7159;DHT22;63175;52.374;13.132;2024-01-06T11:49:26;1.30;99.90
7159;DHT22;63175;52.374;13.132;2024-01-06T11:51:54;1.30;99.90
7159;DHT22;63175;52.374;13.132;2024-01-06T11:54:21;1.30;99.90
7159;DHT22;63175;52.374;13.132;2024-01-06T11:56:48;1.30;99.90
7159;DHT22;63175;52.374;13.132;2024-01-06T11:59:15;1.30;99.90
7159;DHT22;63175;52.374;13.132;2024-01-06T12:01:43;1.30;99.90
7159;DHT22;63175;52.374;13.132;2024-01-06T12:04:14;1.30;99.90
7159;DHT22;63175;52.374;13.132;2024-01-06T12:06:41;1.30;99.90
7159;DHT22;63175;52.374;13.132;2024-01-06T12:09:09;1.40;99.90
7159;DHT22;63175;52.374;13.132;2024-01-06T12:11:36;1.40;99.90
7159;DHT22;63175;52.374;13.132;2024-01-06T12:14:03;1.40;99.90
7159;DHT22;63175;52.374;13.132;2024-01-06T12:16:30;1.40;99.90
7159;DHT22;63175;52.374;13.132;2024-01-06T12:18:59;1.30;99.90
7159;DHT22;63175;52.374;13.132;2024-01-06T12:21:27;1.30;99.90
7159;DHT22;63175;52.374;13.132;2024-01-06T12:23:54;1.30;99.90
7159;DHT22;63175;52.374;13.132;2024-01-06T12:26:40;1.30;99.90
7159;DHT22;63175;52.374;13.132;2024-01-06T12:29:07;1.40;99.90
7159;DHT22;63175;52.374;13.132;2024-01-06T12:31:34;1.40;99.90
7159;DHT22;63175;52.374;13.132;2024-01-06T12:34:02;1.40;99.90
7159;DHT22;63175;52.374;13.132;2024-01-06T12:36:30;1.40;99.90
7159;DHT22;63175;52.374;13.132;2024-01-06T12:38:57;1.30;99.90
7159;DHT22;63175;52.374;13.132;2024-01-06T12:41:24;1.30;99.90
7159;DHT22;63175;52.374;13.132;2024-01-06T12:43:51;1.30;99.90
7159;DHT22;63175;52.374;13.132;2024-01-06T12:46:18;1.30;99.90
7159;DHT22;63175;52.374;13.132;2024-01-06T12:48:45;1.30;99.90
7159;DHT22;63175;52.374;13.132;2024-01-06T12:51:13;1.30;99.90
7159;DHT22;63175;52.374;13.132;2024-01-06T12:53:40;1.30;99.90
7159;DHT22;63175;52.374;13.132;2024-01-06T12:56:07;1.30;99.90
7159;DHT22;63175;52.374;13.132;2024-01-06T12:58:34;1.30;99.90
7159;DHT22;63175;52.374;13.132;2024-01-06T13:01:00;1.30;99.90
7159;DHT22;63175;52.374;13.132;2024-01-06T13:03:28;1.30;99.90
7159;DHT22;63175;52.374;13.132;2024-01-06T13:05:55;1.30;99.90
7159;DHT22;63175;52.374;13.132;2024-01-06T13:08:23;1.30;99.90
7159;DHT22;63175;52.374;13.132;2024-01-06T13:10:50;1.20;99.90
7159;DHT22;63175;52.374;13.132;2024-01-06T13:13:17;1.20;99.90
7159;DHT22;63175;52.374;13.132;2024-01-06T13:15:44;1.30;99.90
7159;DHT22;63175;52.374;13.132;2024-01-06T13:18:11;1.20;99.90
7159;DHT22;63175;52.374;13.132;2024-01-06T13:20:38;1.20;99.90
7159;DHT22;63175;52.374;13.132;2024-01-06T13:23:06;1.20;99.90
7159;DHT22;63175;52.374;13.132;2024-01-06T13:25:35;1.20;99.90
7159;DHT22;63175;52.374;13.132;2024-01-06T13:28:04;1.20;99.90
7159;DHT22;63175;52.374;13.132;2024-01-06T13:30:31;1.20;99.90
7159;DHT22;63175;52.374;13.132;2024-01-06T13:32:58;1.20;99.90
7159;DHT22;63175;52.374;13.132;2024-01-06T13:35:25;1.10;99.90
7159;DHT22;63175;52.374;13.132;2024-01-06T13:37:52;1.10;99.90
7159;DHT22;63175;52.374;13.132;2024-01-06T13:40:19;1.10;99.90
7159;DHT22;63175;52.374;13.132;2024-01-06T13:42:48;1.10;99.90
7159;DHT22;63175;52.374;13.132;2024-01-06T13:45:16;1.10;99.90
7159;DHT22;63175;52.374;13.132;2024-01-06T13:47:43;1.10;99.90
7159;DHT22;63175;52.374;13.132;2024-01-06T13:50:12;1.10;99.90
7159;DHT22;63175;52.374;13.132;2024-01-06T13:52:39;1.10;99.90
7159;DHT22;63175;52.374;13.132;2024-01-06T13:55:06;1.00;99.90
7159;DHT22;63175;52.374;13.132;2024-01-06T13:57:34;1.10;99.90
7159;DHT22;63175;52.374;13.132;2024-01-06T14:00:04;1.00;99.90
7159;DHT22;63175;52.374;13.132;2024-01-06T14:02:31;1.00;99.90
7159;DHT22;63175;52.374;13.132;2024-01-06T14:04:58;1.00;99.90
7159;DHT22;63175;52.374;13.132;2024-01-06T14:07:25;1.00;99.90
7159;DHT22;63175;52.374;13.132;2024-01-06T14:09:52;1.00;99.90
7159;DHT22;63175;52.374;13.132;2024-01-06T14:12:19;1.00;99.90
7159;DHT22;63175;52.374;13.132;2024-01-06T14:14:46;1.00;99.90
7159;DHT22;63175;52.374;13.132;2024-01-06T14:17:14;1.00;99.90
7159;DHT22;63175;52.374;13.132;2024-01-06T14:19:41;1.00;99.90
7159;DHT22;63175;52.374;13.132;2024-01-06T14:22:08;1.00;99.90
7159;DHT22;63175;52.374;13.132;2024-01-06T14:24:34;1.00;99.90
7159;DHT22;63175;52.374;13.132;2024-01-06T14:27:02;1.00;99.90
7159;DHT22;63175;52.374;13.132;2024-01-06T14:29:29;1.00;99.90
7159;DHT22;63175;52.374;13.132;2024-01-06T14:31:56;1.00;99.90
7159;DHT22;63175;52.374;13.132;2024-01-06T14:34:25;1.00;99.90
7159;DHT22;63175;52.374;13.132;2024-01-06T14:36:51;1.00;99.90
7159;DHT22;63175;52.374;13.132;2024-01-06T14:39:18;1.00;99.90
7159;DHT22;63175;52.374;13.132;2024-01-06T14:41:47;0.90;99.90
7159;DHT22;63175;52.374;13.132;2024-01-06T14:44:14;1.00;99.90
7159;DHT22;63175;52.374;13.132;2024-01-06T14:46:41;1.00;99.90
7159;DHT22;63175;52.374;13.132;2024-01-06T14:49:08;1.00;99.90
7159;DHT22;63175;52.374;13.132;2024-01-06T14:51:36;1.00;99.90
7159;DHT22;63175;52.374;13.132;2024-01-06T14:54:04;1.00;99.90
7159;DHT22;63175;52.374;13.132;2024-01-06T14:56:32;1.00;99.90
7159;DHT22;63175;52.374;13.132;2024-01-06T14:58:59;0.90;99.90
7159;DHT22;63175;52.374;13.132;2024-01-06T15:01:26;0.90;99.90
7159;DHT22;63175;52.374;13.132;2024-01-06T15:03:53;0.90;99.90
7159;DHT22;63175;52.374;13.132;2024-01-06T15:06:20;0.90;99.90
7159;DHT22;63175;52.374;13.132;2024-01-06T15:08:48;0.80;99.90
7159;DHT22;63175;52.374;13.132;2024-01-06T15:11:15;0.80;99.90
7159;DHT22;63175;52.374;13.132;2024-01-06T15:13:42;0.80;99.90
7159;DHT22;63175;52.374;13.132;2024-01-06T15:16:10;0.80;99.90
7159;DHT22;63175;52.374;13.132;2024-01-06T15:18:37;0.80;99.90
7159;DHT22;63175;52.374;13.132;2024-01-06T15:21:04;0.80;99.90
7159;DHT22;63175;52.374;13.132;2024-01-06T15:23:31;0.80;99.90
7159;DHT22;63175;52.374;13.132;2024-01-06T15:25:59;0.80;99.90
7159;DHT22;63175;52.374;13.132;2024-01-06T15:28:29;0.80;99.90
7159;DHT22;63175;52.374;13.132;2024-01-06T15:30:55;0.80;99.90
7159;DHT22;63175;52.374;13.132;2024-01-06T15:33:23;0.80;99.90
7159;DHT22;63175;52.374;13.132;2024-01-06T15:35:50;0.80;99.90
7159;DHT22;63175;52.374;13.132;2024-01-06T15:38:18;0.80;99.90
7159;DHT22;63175;52.374;13.132;2024-01-06T15:40:45;0.80;99.90
7159;DHT22;63175;52.374;13.132;2024-01-06T15:43:13;0.80;99.90
7159;DHT22;63175;52.374;13.132;2024-01-06T15:45:40;0.80;99.90